createdAt,value
2019-05-01T00:02:27.879Z,9.80
2019-05-01T00:05:07.963Z,9.90
2019-05-01T00:07:39.276Z,9.90
2019-05-01T00:10:10.774Z,9.90
2019-05-01T00:12:41.771Z,9.90
2019-05-01T00:15:13.852Z,9.80
2019-05-01T00:17:45.175Z,9.80
2019-05-01T00:20:17.698Z,9.90
2019-05-01T00:22:48.868Z,9.90
2019-05-01T00:25:19.783Z,9.90
2019-05-01T00:27:51.255Z,10.00
2019-05-01T00:30:30.015Z,10.00
2019-05-01T00:32:57.452Z,10.00
2019-05-01T00:35:28.709Z,10.00
2019-05-01T00:37:59.961Z,10.00
2019-05-01T00:40:31.131Z,10.00
2019-05-01T00:43:02.655Z,10.00
2019-05-01T00:45:34.128Z,10.00
2019-05-01T00:48:05.207Z,10.00
2019-05-01T00:50:36.375Z,10.00
2019-05-01T00:53:07.380Z,10.00
2019-05-01T00:55:54.732Z,10.00
2019-05-01T00:58:43.655Z,10.00
2019-05-01T01:01:26.290Z,10.00
2019-05-01T01:03:57.991Z,10.00
2019-05-01T01:06:29.238Z,10.00
2019-05-01T01:09:00.491Z,10.10
2019-05-01T01:11:45.380Z,10.10
2019-05-01T01:14:16.814Z,10.00
2019-05-01T01:16:47.795Z,10.00
2019-05-01T01:19:19.136Z,10.10
2019-05-01T01:21:50.446Z,10.10
2019-05-01T01:24:21.824Z,10.10
2019-05-01T01:26:53.132Z,10.10
2019-05-01T01:29:24.443Z,10.10
2019-05-01T01:31:55.741Z,10.10
2019-05-01T01:34:27.791Z,10.10
2019-05-01T01:36:58.939Z,10.10
2019-05-01T01:39:30.275Z,10.10
2019-05-01T01:42:01.652Z,10.10
2019-05-01T01:44:47.427Z,10.10
2019-05-01T01:47:34.424Z,10.10
2019-05-01T01:50:06.144Z,10.10
2019-05-01T01:52:37.455Z,10.10
2019-05-01T01:55:09.186Z,10.10
2019-05-01T01:57:40.232Z,10.10
2019-05-01T02:00:14.410Z,10.10
2019-05-01T02:02:51.759Z,10.10
2019-05-01T02:05:29.647Z,10.10
2019-05-01T02:08:00.952Z,10.10
2019-05-01T02:10:42.598Z,10.10
2019-05-01T02:13:05.222Z,10.10
2019-05-01T02:15:36.455Z,10.10
2019-05-01T02:18:08.802Z,10.10
2019-05-01T02:20:40.358Z,10.10
2019-05-01T02:23:11.527Z,10.10
2019-05-01T02:25:44.230Z,10.10
2019-05-01T02:28:30.983Z,10.10
2019-05-01T02:31:29.502Z,10.10
2019-05-01T02:34:03.178Z,10.00
2019-05-01T02:36:35.349Z,10.00
2019-05-01T02:39:09.460Z,10.00
2019-05-01T02:41:43.466Z,10.00
2019-05-01T02:44:21.902Z,9.90
2019-05-01T02:46:55.644Z,9.90
2019-05-01T02:49:37.786Z,9.90
2019-05-01T02:52:11.690Z,9.90
2019-05-01T02:54:46.160Z,9.80
2019-05-01T02:57:20.659Z,9.80
2019-05-01T02:59:53.592Z,9.80
2019-05-01T03:02:27.207Z,9.80
2019-05-01T03:04:59.366Z,9.70
2019-05-01T03:07:33.760Z,9.70
2019-05-01T03:10:09.271Z,9.70
2019-05-01T03:12:41.444Z,9.70
2019-05-01T03:15:15.211Z,9.60
2019-05-01T03:18:00.180Z,9.60
2019-05-01T03:20:46.939Z,9.60
2019-05-01T03:23:22.916Z,9.60
2019-05-01T03:25:54.294Z,9.60
2019-05-01T03:28:25.624Z,9.60
2019-05-01T03:30:56.844Z,9.60
2019-05-01T03:33:31.556Z,9.60
2019-05-01T03:36:04.029Z,9.60
2019-05-01T03:38:35.565Z,9.60
2019-05-01T03:41:06.945Z,9.60
2019-05-01T03:43:38.286Z,9.50
2019-05-01T03:46:10.397Z,9.50
2019-05-01T03:48:42.383Z,9.60
2019-05-01T03:51:13.730Z,9.60
2019-05-01T03:53:44.799Z,9.60
2019-05-01T03:56:16.192Z,9.60
2019-05-01T03:58:47.613Z,9.60
2019-05-01T04:01:28.306Z,9.60
2019-05-01T04:04:07.099Z,9.60
2019-05-01T04:06:38.373Z,9.60
2019-05-01T04:09:11.195Z,9.60
2019-05-01T04:11:42.572Z,9.70
2019-05-01T04:14:13.691Z,9.70
2019-05-01T04:16:46.939Z,9.70
2019-05-01T04:19:18.750Z,9.70
2019-05-01T04:21:58.718Z,9.70
2019-05-01T04:24:29.804Z,9.70
2019-05-01T04:27:02.165Z,9.70
2019-05-01T04:29:40.340Z,9.70
2019-05-01T04:32:17.244Z,9.70
2019-05-01T04:35:16.663Z,9.70
2019-05-01T04:37:47.905Z,9.70
2019-05-01T04:40:19.703Z,9.70
2019-05-01T04:42:50.968Z,9.80
2019-05-01T04:45:24.843Z,9.80
2019-05-01T04:47:56.768Z,9.80
2019-05-01T04:50:28.319Z,9.80
2019-05-01T04:52:59.935Z,9.80
2019-05-01T04:55:32.673Z,9.80
2019-05-01T04:58:03.831Z,9.80
2019-05-01T05:00:35.419Z,9.80
2019-05-01T05:03:10.662Z,9.80
2019-05-01T05:05:41.962Z,9.80
2019-05-01T05:08:13.343Z,9.80
2019-05-01T05:10:44.418Z,9.80
2019-05-01T05:13:46.656Z,9.90
2019-05-01T05:16:22.650Z,9.90
2019-05-01T05:18:54.039Z,9.90
2019-05-01T05:21:25.166Z,9.90
2019-05-01T05:23:56.867Z,9.90
2019-05-01T05:26:28.135Z,9.90
2019-05-01T05:29:00.763Z,9.80
2019-05-01T05:31:32.807Z,9.80
2019-05-01T05:34:06.346Z,9.80
2019-05-01T05:36:39.155Z,9.80
2019-05-01T05:39:16.923Z,9.80
2019-05-01T05:41:50.803Z,9.90
2019-05-01T05:44:22.727Z,9.80
2019-05-01T05:46:54.143Z,9.80
2019-05-01T05:49:25.753Z,9.90
2019-05-01T05:52:07.647Z,9.90
2019-05-01T05:54:48.237Z,10.00
2019-05-01T05:57:25.827Z,10.00
2019-05-01T06:00:02.152Z,10.10
2019-05-01T06:02:49.087Z,10.10
2019-05-01T06:05:31.186Z,10.10
2019-05-01T06:08:11.786Z,10.00
2019-05-01T06:11:10.640Z,10.00
2019-05-01T06:14:09.574Z,10.10
2019-05-01T06:16:52.040Z,10.10
2019-05-01T06:19:32.271Z,10.10
2019-05-01T06:22:16.899Z,10.20
2019-05-01T06:24:50.886Z,10.30
2019-05-01T06:27:22.175Z,10.40
2019-05-01T06:29:53.466Z,10.40
2019-05-01T06:32:28.825Z,10.50
2019-05-01T06:34:58.494Z,10.70
2019-05-01T06:37:51.496Z,10.80
2019-05-01T06:40:38.271Z,10.90
2019-05-01T06:43:20.190Z,11.00
2019-05-01T06:45:55.288Z,11.10
2019-05-01T06:48:28.313Z,11.20
2019-05-01T06:51:18.896Z,11.20
2019-05-01T06:53:50.227Z,11.30
2019-05-01T06:56:21.278Z,11.40
2019-05-01T06:58:56.423Z,11.50
2019-05-01T07:01:28.147Z,11.50
2019-05-01T07:04:03.921Z,11.60
2019-05-01T07:06:32.987Z,11.70
2019-05-01T07:09:06.922Z,11.70
2019-05-01T07:11:42.357Z,11.80
2019-05-01T07:14:16.087Z,11.80
2019-05-01T07:16:46.806Z,11.80
2019-05-01T07:19:19.991Z,11.80
2019-05-01T07:21:51.607Z,11.70
2019-05-01T07:24:27.607Z,11.70
2019-05-01T07:26:55.923Z,11.80
2019-05-01T07:29:28.875Z,11.90
2019-05-01T07:32:01.715Z,12.00
2019-05-01T07:34:33.179Z,12.00
2019-05-01T07:37:04.948Z,12.00
2019-05-01T07:39:36.109Z,12.00
2019-05-01T07:42:27.318Z,12.00
2019-05-01T07:45:22.497Z,12.00
2019-05-01T07:47:53.791Z,12.00
2019-05-01T07:50:31.644Z,12.10
2019-05-01T07:52:59.735Z,12.20
2019-05-01T07:55:37.227Z,12.30
2019-05-01T07:58:10.208Z,12.30
2019-05-01T08:00:49.861Z,12.40
2019-05-01T08:03:21.967Z,12.40
2019-05-01T08:05:53.183Z,12.40
2019-05-01T08:08:24.583Z,12.40
2019-05-01T08:10:59.818Z,12.40
2019-05-01T08:13:30.631Z,12.50
2019-05-01T08:16:06.968Z,12.50
2019-05-01T08:18:41.499Z,12.50
2019-05-01T08:21:42.139Z,12.60
2019-05-01T08:24:18.029Z,12.50
2019-05-01T08:26:47.115Z,12.40
2019-05-01T08:29:49.577Z,12.30
2019-05-01T08:32:48.892Z,12.40
2019-05-01T08:35:22.099Z,12.50
2019-05-01T08:37:58.484Z,12.70
2019-05-01T08:40:27.700Z,12.80
2019-05-01T08:42:58.845Z,12.90
2019-05-01T08:45:58.358Z,12.80
2019-05-01T08:49:00.855Z,12.80
2019-05-01T08:51:34.891Z,12.80
2019-05-01T08:54:05.787Z,12.90
2019-05-01T08:56:36.944Z,13.00
2019-05-01T08:59:08.163Z,12.90
2019-05-01T09:01:39.542Z,12.80
2019-05-01T09:04:13.194Z,12.80
2019-05-01T09:06:43.920Z,12.90
2019-05-01T09:09:16.371Z,13.00
2019-05-01T09:11:47.531Z,13.00
2019-05-01T09:14:18.624Z,13.00
2019-05-01T09:16:52.293Z,13.20
2019-05-01T09:19:22.551Z,13.40
2019-05-01T09:21:54.076Z,13.60
2019-05-01T09:24:27.952Z,13.70
2019-05-01T09:27:23.722Z,13.80
2019-05-01T09:29:55.439Z,13.70
2019-05-01T09:32:28.774Z,13.70
2019-05-01T09:34:59.991Z,13.80
2019-05-01T09:37:31.235Z,13.70
2019-05-01T09:40:04.210Z,13.70
2019-05-01T09:42:36.939Z,13.80
2019-05-01T09:45:08.864Z,13.90
2019-05-01T09:47:40.113Z,14.00
2019-05-01T09:50:11.411Z,14.30
2019-05-01T09:52:59.838Z,14.60
2019-05-01T09:55:44.942Z,14.60
2019-05-01T09:58:16.101Z,14.60
2019-05-01T10:00:48.858Z,14.30
2019-05-01T10:03:20.171Z,14.10
2019-05-01T10:05:51.107Z,14.10
2019-05-01T10:08:22.340Z,14.20
2019-05-01T10:10:55.068Z,14.20
2019-05-01T10:13:26.210Z,14.20
2019-05-01T10:15:57.281Z,14.20
2019-05-01T10:18:29.409Z,14.30
2019-05-01T10:21:00.399Z,14.50
2019-05-01T10:23:31.539Z,14.60
2019-05-01T10:26:04.339Z,14.60
2019-05-01T10:28:50.114Z,14.60
2019-05-01T10:31:46.573Z,14.60
2019-05-01T10:34:31.881Z,14.60
2019-05-01T10:37:03.055Z,14.60
2019-05-01T10:39:34.231Z,14.60
2019-05-01T10:42:05.224Z,14.60
2019-05-01T10:44:36.372Z,14.70
2019-05-01T10:47:07.289Z,14.70
2019-05-01T10:49:38.515Z,14.90
2019-05-01T10:52:14.276Z,15.10
2019-05-01T10:54:42.424Z,15.20
2019-05-01T10:57:13.700Z,15.30
2019-05-01T10:59:44.934Z,15.20
2019-05-01T11:02:17.870Z,15.10
2019-05-01T11:04:48.792Z,15.00
2019-05-01T11:07:20.061Z,15.00
2019-05-01T11:09:51.528Z,14.90
2019-05-01T11:12:23.980Z,14.90
2019-05-01T11:14:54.888Z,15.10
2019-05-01T11:17:26.053Z,15.10
2019-05-01T11:19:57.544Z,15.20
2019-05-01T11:22:28.529Z,15.50
2019-05-01T11:24:59.515Z,15.60
2019-05-01T11:27:30.992Z,15.60
2019-05-01T11:30:02.407Z,15.50
2019-05-01T11:33:01.651Z,15.40
2019-05-01T11:35:50.450Z,15.40
2019-05-01T11:38:43.492Z,15.50
2019-05-01T11:41:22.365Z,15.40
2019-05-01T11:43:53.534Z,15.30
2019-05-01T11:46:24.823Z,15.40
2019-05-01T11:48:55.996Z,15.40
2019-05-01T11:51:27.178Z,15.50
2019-05-01T11:53:58.328Z,15.50
2019-05-01T11:56:29.228Z,15.70
2019-05-01T11:59:00.712Z,15.70
2019-05-01T12:01:31.879Z,15.60
2019-05-01T12:04:02.791Z,15.40
2019-05-01T12:06:45.788Z,15.40
2019-05-01T12:09:18.911Z,15.20
2019-05-01T12:11:51.914Z,15.20
2019-05-01T12:14:22.894Z,15.20
2019-05-01T12:17:05.471Z,15.30
2019-05-01T12:19:36.373Z,15.30
2019-05-01T12:22:07.520Z,15.10
2019-05-01T12:24:40.151Z,15.20
2019-05-01T12:27:11.871Z,15.20
2019-05-01T12:29:43.091Z,15.10
2019-05-01T12:32:14.248Z,15.10
2019-05-01T12:34:45.400Z,15.20
2019-05-01T12:37:33.067Z,15.30
2019-05-01T12:40:06.994Z,15.40
2019-05-01T12:42:38.807Z,15.50
2019-05-01T12:45:10.716Z,15.60
2019-05-01T12:48:00.543Z,15.60
2019-05-01T12:50:31.599Z,15.70
2019-05-01T12:53:17.811Z,15.60
2019-05-01T12:56:04.120Z,15.50
2019-05-01T12:58:36.804Z,15.30
2019-05-01T13:01:09.423Z,15.20
2019-05-01T13:03:40.621Z,15.40
2019-05-01T13:06:14.292Z,15.50
2019-05-01T13:08:44.407Z,15.60
2019-05-01T13:11:15.830Z,15.60
2019-05-01T13:13:47.047Z,15.60
2019-05-01T13:16:18.197Z,15.60
2019-05-01T13:18:52.851Z,15.60
2019-05-01T13:21:23.787Z,15.60
2019-05-01T13:23:55.188Z,15.70
2019-05-01T13:26:37.748Z,15.70
2019-05-01T13:29:26.237Z,15.70
2019-05-01T13:32:16.575Z,15.70
2019-05-01T13:34:49.655Z,15.70
2019-05-01T13:37:20.973Z,15.60
2019-05-01T13:39:52.287Z,15.60
2019-05-01T13:42:23.428Z,15.50
2019-05-01T13:44:54.639Z,15.50
2019-05-01T13:47:25.973Z,15.50
2019-05-01T13:49:57.139Z,15.40
2019-05-01T13:52:28.295Z,15.40
2019-05-01T13:54:59.613Z,15.40
2019-05-01T13:57:30.759Z,15.40
2019-05-01T14:00:01.917Z,15.30
2019-05-01T14:02:34.659Z,15.30
2019-05-01T14:05:06.303Z,15.30
2019-05-01T14:07:39.224Z,15.30
2019-05-01T14:10:10.330Z,15.40
2019-05-01T14:12:41.783Z,15.30
2019-05-01T14:15:13.095Z,15.20
2019-05-01T14:17:51.793Z,15.20
2019-05-01T14:20:39.422Z,15.10
2019-05-01T14:23:21.319Z,15.10
2019-05-01T14:26:05.250Z,15.00
2019-05-01T14:28:36.665Z,15.00
2019-05-01T14:31:07.573Z,15.00
2019-05-01T14:33:38.726Z,15.00
2019-05-01T14:36:09.976Z,15.00
2019-05-01T14:38:41.194Z,14.90
2019-05-01T14:41:12.381Z,14.90
2019-05-01T14:43:43.556Z,14.90
2019-05-01T14:46:15.407Z,14.90
2019-05-01T14:48:46.576Z,14.90
2019-05-01T14:51:17.739Z,15.00
2019-05-01T14:53:49.165Z,15.00
2019-05-01T14:56:21.166Z,15.00
2019-05-01T14:58:52.074Z,15.00
2019-05-01T15:01:23.227Z,15.10
2019-05-01T15:03:54.551Z,15.10
2019-05-01T15:06:25.783Z,15.10
2019-05-01T15:08:56.940Z,14.90
2019-05-01T15:11:28.179Z,14.90
2019-05-01T15:14:24.730Z,14.90
2019-05-01T15:17:15.047Z,14.90
2019-05-01T15:19:51.021Z,14.80
2019-05-01T15:22:22.438Z,14.80
2019-05-01T15:24:53.616Z,14.80
2019-05-01T15:27:24.904Z,14.70
2019-05-01T15:29:55.800Z,14.70
2019-05-01T15:32:26.729Z,14.70
2019-05-01T15:34:59.071Z,14.70
2019-05-01T15:37:30.227Z,14.70
2019-05-01T15:40:05.768Z,14.70
2019-05-01T15:42:44.447Z,14.60
2019-05-01T15:45:15.745Z,14.50
2019-05-01T15:47:50.375Z,14.60
2019-05-01T15:50:23.053Z,14.50
2019-05-01T15:52:53.971Z,14.50
2019-05-01T15:55:25.139Z,14.50
2019-05-01T15:57:57.623Z,14.50
2019-05-01T16:00:28.823Z,14.40
2019-05-01T16:02:59.979Z,14.40
2019-05-01T16:05:30.960Z,14.50
2019-05-01T16:08:09.424Z,14.50
2019-05-01T16:10:39.627Z,14.60
2019-05-01T16:13:10.839Z,14.60
2019-05-01T16:15:42.177Z,14.70
2019-05-01T16:18:13.339Z,14.70
2019-05-01T16:20:44.493Z,14.70
2019-05-01T16:23:15.715Z,14.70
2019-05-01T16:25:47.163Z,14.80
2019-05-01T16:28:19.475Z,14.70
2019-05-01T16:30:50.654Z,14.60
2019-05-01T16:33:21.594Z,14.70
2019-05-01T16:35:52.731Z,14.60
2019-05-01T16:38:30.982Z,14.60
2019-05-01T16:41:05.604Z,14.50
2019-05-01T16:43:37.149Z,14.50
2019-05-01T16:46:22.063Z,14.50
2019-05-01T16:48:53.310Z,14.40
2019-05-01T16:51:24.327Z,14.30
2019-05-01T16:53:55.355Z,14.20
2019-05-01T16:56:26.320Z,14.20
2019-05-01T16:58:58.507Z,14.20
2019-05-01T17:01:48.820Z,14.10
2019-05-01T17:04:35.455Z,14.10
2019-05-01T17:07:23.148Z,14.10
2019-05-01T17:10:14.850Z,14.10
2019-05-01T17:12:47.703Z,13.90
2019-05-01T17:15:25.901Z,13.80
2019-05-01T17:17:56.826Z,13.80
2019-05-01T17:20:28.240Z,13.70
2019-05-01T17:22:59.408Z,13.70
2019-05-01T17:25:31.279Z,13.70
2019-05-01T17:28:03.048Z,13.60
2019-05-01T17:30:40.513Z,13.60
2019-05-01T17:33:20.070Z,13.60
2019-05-01T17:35:44.780Z,13.70
2019-05-01T17:38:16.328Z,13.70
2019-05-01T17:40:52.165Z,13.60
2019-05-01T17:43:21.542Z,13.60
2019-05-01T17:45:53.201Z,13.60
2019-05-01T17:48:28.751Z,13.60
2019-05-01T17:51:00.146Z,13.50
2019-05-01T17:53:30.763Z,13.60
2019-05-01T17:56:02.359Z,13.50
2019-05-01T17:58:33.375Z,13.40
2019-05-01T18:01:27.548Z,13.30
2019-05-01T18:04:14.871Z,13.30
2019-05-01T18:06:48.139Z,13.20
2019-05-01T18:09:19.368Z,13.00
2019-05-01T18:11:52.087Z,12.90
2019-05-01T18:14:22.959Z,12.90
2019-05-01T18:16:54.543Z,12.90
2019-05-01T18:19:25.735Z,12.90
2019-05-01T18:22:32.178Z,12.80
2019-05-01T18:25:19.495Z,12.80
2019-05-01T18:27:59.277Z,12.80
2019-05-01T18:30:35.907Z,12.70
2019-05-01T18:33:07.151Z,12.60
2019-05-01T18:35:38.203Z,12.60
2019-05-01T18:38:22.603Z,12.50
2019-05-01T18:40:58.188Z,12.40
2019-05-01T18:43:32.169Z,12.50
2019-05-01T18:46:03.561Z,12.40
2019-05-01T18:48:34.862Z,12.40
2019-05-01T18:51:05.841Z,12.30
2019-05-01T18:53:37.000Z,12.30
2019-05-01T18:56:08.219Z,12.20
2019-05-01T18:58:39.124Z,12.20
2019-05-01T19:01:10.865Z,12.10
2019-05-01T19:03:44.064Z,12.10
2019-05-01T19:06:20.989Z,12.00
2019-05-01T19:08:52.151Z,11.90
2019-05-01T19:11:25.223Z,11.90
2019-05-01T19:13:56.359Z,11.80
2019-05-01T19:16:27.595Z,11.80
2019-05-01T19:18:58.647Z,11.70
2019-05-01T19:21:35.568Z,11.80
2019-05-01T19:24:06.893Z,11.80
2019-05-01T19:26:44.143Z,11.80
2019-05-01T19:29:15.242Z,11.70
2019-05-01T19:31:46.134Z,11.70
2019-05-01T19:34:18.907Z,11.70
2019-05-01T19:36:51.470Z,11.60
2019-05-01T19:39:23.275Z,11.60
2019-05-01T19:41:54.741Z,11.50
2019-05-01T19:44:26.299Z,11.40
2019-05-01T19:46:57.528Z,11.40
2019-05-01T19:49:29.787Z,11.40
2019-05-01T19:52:02.028Z,11.30
2019-05-01T19:54:34.094Z,11.20
2019-05-01T19:57:05.392Z,11.20
2019-05-01T19:59:36.325Z,11.10
2019-05-01T20:02:07.594Z,11.10
2019-05-01T20:04:38.782Z,11.10
2019-05-01T20:07:10.500Z,11.20
2019-05-01T20:09:50.390Z,11.20
2019-05-01T20:12:15.755Z,11.10
2019-05-01T20:14:46.927Z,11.10
2019-05-01T20:17:17.951Z,11.10
2019-05-01T20:19:49.178Z,11.00
2019-05-01T20:22:20.579Z,11.00
2019-05-01T20:24:51.763Z,10.90
2019-05-01T20:27:22.894Z,10.90
2019-05-01T20:29:54.123Z,10.80
2019-05-01T20:32:26.354Z,10.80
2019-05-01T20:34:59.481Z,10.80
2019-05-01T20:37:30.731Z,10.80
2019-05-01T20:40:10.774Z,10.80
2019-05-01T20:42:34.723Z,10.70
2019-05-01T20:45:12.810Z,10.70
2019-05-01T20:47:45.127Z,10.70
2019-05-01T20:50:14.104Z,10.60
2019-05-01T20:52:45.152Z,10.60
2019-05-01T20:55:16.312Z,10.50
2019-05-01T20:57:48.337Z,10.50
2019-05-01T21:00:20.396Z,10.50
2019-05-01T21:02:51.532Z,10.40
2019-05-01T21:05:31.455Z,10.30
2019-05-01T21:08:15.050Z,10.30
2019-05-01T21:11:11.239Z,10.30
2019-05-01T21:13:41.467Z,10.20
2019-05-01T21:16:12.399Z,10.20
2019-05-01T21:18:43.315Z,10.10
2019-05-01T21:21:14.270Z,10.10
2019-05-01T21:23:48.158Z,10.10
2019-05-01T21:26:18.415Z,10.10
2019-05-01T21:28:49.571Z,10.00
2019-05-01T21:31:20.724Z,10.00
2019-05-01T21:33:53.476Z,9.90
2019-05-01T21:36:24.299Z,9.90
2019-05-01T21:38:55.431Z,9.90
2019-05-01T21:41:26.323Z,9.90
2019-05-01T21:43:57.463Z,9.80
2019-05-01T21:46:28.898Z,9.80
2019-05-01T21:48:59.829Z,9.80
2019-05-01T21:51:32.731Z,9.70
2019-05-01T21:54:05.267Z,9.70
2019-05-01T21:56:36.958Z,9.70
2019-05-01T21:59:09.298Z,9.60
2019-05-01T22:01:40.703Z,9.60
2019-05-01T22:04:11.710Z,9.50
2019-05-01T22:06:46.906Z,9.50
2019-05-01T22:09:19.778Z,9.40
2019-05-01T22:11:51.119Z,9.50
2019-05-01T22:14:36.123Z,9.40
2019-05-01T22:17:13.137Z,9.50
2019-05-01T22:19:44.355Z,9.40
2019-05-01T22:22:38.858Z,9.30
2019-05-01T22:25:19.795Z,9.30
2019-05-01T22:27:56.031Z,9.30
2019-05-01T22:30:42.237Z,9.20
2019-05-01T22:33:13.455Z,9.20
2019-05-01T22:35:51.947Z,9.10
2019-05-01T22:38:23.178Z,9.10
2019-05-01T22:41:06.477Z,9.20
2019-05-01T22:43:32.636Z,9.10
2019-05-01T22:46:04.892Z,9.10
2019-05-01T22:48:37.107Z,9.10
2019-05-01T22:51:26.891Z,9.00
2019-05-01T22:53:58.134Z,9.00
2019-05-01T22:56:30.182Z,9.00
2019-05-01T22:59:01.331Z,9.00
2019-05-01T23:01:33.559Z,9.00
2019-05-01T23:04:06.436Z,8.90
2019-05-01T23:06:41.775Z,8.90
2019-05-01T23:09:12.938Z,8.90
2019-05-01T23:11:46.830Z,8.80
2019-05-01T23:14:18.946Z,8.80
2019-05-01T23:16:58.682Z,8.80
2019-05-01T23:19:31.620Z,8.70
2019-05-01T23:22:02.807Z,8.70
2019-05-01T23:24:35.471Z,8.70
2019-05-01T23:27:06.962Z,8.70
2019-05-01T23:29:38.158Z,8.60
2019-05-01T23:32:09.246Z,8.50
2019-05-01T23:34:40.428Z,8.50
2019-05-01T23:37:11.934Z,8.50
2019-05-01T23:39:43.079Z,8.50
2019-05-01T23:42:14.115Z,8.50
2019-05-01T23:44:45.274Z,8.50
2019-05-01T23:47:16.431Z,8.50
2019-05-01T23:49:52.611Z,8.50
2019-05-01T23:52:23.441Z,8.50
2019-05-01T23:54:55.623Z,8.40
2019-05-01T23:57:27.023Z,8.30
